createdAt,value
2023-04-28T00:01:24.429Z,3.58
2023-04-28T00:03:59.265Z,4.15
2023-04-28T00:06:28.403Z,3.63
2023-04-28T00:08:57.199Z,7.55
2023-04-28T00:11:26.122Z,3.22
2023-04-28T00:13:56.092Z,3.45
2023-04-28T00:16:27.901Z,5.70
2023-04-28T00:19:00.205Z,3.05
2023-04-28T00:21:31.984Z,4.97
2023-04-28T00:24:02.750Z,5.22
2023-04-28T00:26:32.921Z,3.58
2023-04-28T00:29:02.349Z,8.23
2023-04-28T00:31:35.364Z,4.47
2023-04-28T00:34:03.694Z,8.43
2023-04-28T00:36:33.820Z,5.53
2023-04-28T00:39:02.298Z,5.32
2023-04-28T00:41:33.211Z,3.75
2023-04-28T00:44:02.149Z,4.03
2023-04-28T00:46:32.090Z,4.35
2023-04-28T00:49:00.684Z,4.95
2023-04-28T00:51:30.853Z,3.25
2023-04-28T00:54:00.416Z,4.47
2023-04-28T00:56:31.228Z,5.20
2023-04-28T00:59:02.098Z,4.00
2023-04-28T01:01:31.136Z,5.10
2023-04-28T01:04:00.040Z,4.50
2023-04-28T01:06:30.797Z,4.22
2023-04-28T01:09:01.768Z,6.10
2023-04-28T01:11:31.353Z,4.38
2023-04-28T01:14:00.185Z,6.10
2023-04-28T01:16:33.493Z,4.80
2023-04-28T01:19:05.052Z,5.60
2023-04-28T01:21:35.773Z,4.22
2023-04-28T01:24:24.672Z,4.45
2023-04-28T01:26:53.673Z,5.20
2023-04-28T01:29:24.388Z,4.38
2023-04-28T01:31:56.582Z,3.47
2023-04-28T01:34:27.860Z,5.82
2023-04-28T01:36:56.668Z,3.55
2023-04-28T01:39:25.070Z,5.38
2023-04-28T01:41:54.137Z,3.97
2023-04-28T01:44:28.394Z,6.32
2023-04-28T01:46:57.276Z,6.90
2023-04-28T01:49:28.093Z,6.18
2023-04-28T01:51:56.589Z,5.05
2023-04-28T01:55:01.825Z,8.98
2023-04-28T01:57:53.955Z,5.43
2023-04-28T02:00:27.732Z,3.42
2023-04-28T02:03:10.046Z,5.10
2023-04-28T02:05:38.745Z,3.90
2023-04-28T02:08:09.800Z,4.43
2023-04-28T02:10:41.677Z,6.07
2023-04-28T02:13:10.851Z,4.55
2023-04-28T02:15:42.715Z,4.97
2023-04-28T02:18:14.214Z,3.72
2023-04-28T02:20:45.308Z,5.43
2023-04-28T02:23:14.233Z,12.43
2023-04-28T02:25:43.308Z,5.05
2023-04-28T02:28:15.274Z,3.65
2023-04-28T02:30:43.941Z,7.43
2023-04-28T02:33:19.590Z,5.63
2023-04-28T02:35:59.292Z,3.97
2023-04-28T02:38:27.714Z,3.90
2023-04-28T02:41:04.740Z,3.08
2023-04-28T02:43:36.328Z,5.22
2023-04-28T02:46:06.371Z,5.57
2023-04-28T02:48:37.408Z,2.90
2023-04-28T02:51:10.237Z,4.07
2023-04-28T02:53:39.449Z,2.95
2023-04-28T02:56:08.055Z,5.55
2023-04-28T02:58:36.500Z,3.80
2023-04-28T03:01:04.896Z,2.83
2023-04-28T03:03:36.211Z,2.67
2023-04-28T03:06:05.807Z,3.53
2023-04-28T03:08:34.664Z,5.03
2023-04-28T03:11:03.499Z,5.30
2023-04-28T03:13:33.113Z,5.70
2023-04-28T03:16:01.768Z,2.92
2023-04-28T03:18:31.273Z,4.72
2023-04-28T03:21:00.147Z,3.92
2023-04-28T03:23:30.751Z,6.13
2023-04-28T03:25:59.110Z,3.53
2023-04-28T03:28:33.224Z,2.78
2023-04-28T03:31:05.530Z,4.25
2023-04-28T03:33:39.466Z,7.20
2023-04-28T03:36:08.853Z,3.25
2023-04-28T03:38:40.077Z,5.13
2023-04-28T03:41:09.343Z,3.88
2023-04-28T03:43:56.743Z,5.38
2023-04-28T03:46:34.738Z,6.40
2023-04-28T03:49:04.850Z,3.58
2023-04-28T03:51:34.682Z,4.75
2023-04-28T03:54:04.048Z,3.08
2023-04-28T03:56:36.037Z,3.20
2023-04-28T03:59:11.634Z,3.85
2023-04-28T04:01:41.025Z,4.50
2023-04-28T04:04:14.599Z,4.38
2023-04-28T04:06:43.852Z,3.85
2023-04-28T04:09:13.220Z,3.50
2023-04-28T04:11:44.666Z,4.40
2023-04-28T04:14:13.097Z,3.65
2023-04-28T04:16:44.946Z,6.70
2023-04-28T04:19:14.056Z,4.50
2023-04-28T04:21:45.743Z,4.40
2023-04-28T04:24:15.153Z,4.13
2023-04-28T04:26:44.300Z,7.63
2023-04-28T04:29:27.240Z,5.45
2023-04-28T04:31:55.786Z,5.25
2023-04-28T04:34:24.219Z,7.18
2023-04-28T04:36:55.910Z,3.88
2023-04-28T04:39:24.750Z,4.90
2023-04-28T04:41:54.361Z,4.82
2023-04-28T04:44:44.284Z,4.82
2023-04-28T04:47:21.255Z,4.55
2023-04-28T04:49:50.577Z,7.28
2023-04-28T04:52:21.511Z,10.23
2023-04-28T04:54:50.092Z,5.38
2023-04-28T04:57:23.916Z,4.40
2023-04-28T05:03:06.162Z,3.80
2023-04-28T05:05:35.003Z,3.70
2023-04-28T05:08:10.577Z,5.35
2023-04-28T05:10:39.120Z,4.65
2023-04-28T05:13:10.671Z,6.70
2023-04-28T05:15:39.651Z,4.40
2023-04-28T05:18:32.167Z,7.05
2023-04-28T05:21:01.546Z,6.32
2023-04-28T05:23:32.838Z,5.93
2023-04-28T05:26:03.823Z,5.00
2023-04-28T05:28:33.614Z,6.70
2023-04-28T05:31:06.778Z,3.88
2023-04-28T05:33:35.541Z,7.13
2023-04-28T05:36:04.204Z,5.93
2023-04-28T05:38:37.774Z,5.38
2023-04-28T05:41:07.146Z,8.98
2023-04-28T05:43:36.035Z,5.60
2023-04-28T05:46:09.743Z,6.00
2023-04-28T05:48:43.775Z,4.20
2023-04-28T05:51:15.189Z,4.18
2023-04-28T05:53:48.725Z,5.80
2023-04-28T05:56:17.491Z,4.40
2023-04-28T05:58:50.546Z,5.55
2023-04-28T06:01:19.805Z,5.32
2023-04-28T06:03:51.953Z,4.93
2023-04-28T06:06:21.802Z,5.07
2023-04-28T06:08:53.320Z,4.03
2023-04-28T06:11:22.893Z,7.65
2023-04-28T06:13:56.208Z,6.15
2023-04-28T06:16:26.796Z,4.53
2023-04-28T06:18:59.241Z,6.55
2023-04-28T06:21:29.172Z,4.55
2023-04-28T06:24:02.937Z,4.93
2023-04-28T06:26:33.582Z,4.53
2023-04-28T06:29:04.753Z,5.78
2023-04-28T06:31:33.289Z,3.25
2023-04-28T06:34:05.940Z,3.90
2023-04-28T06:36:36.980Z,3.72
2023-04-28T06:39:08.297Z,8.25
2023-04-28T06:41:39.798Z,3.47
2023-04-28T06:44:11.868Z,4.88
2023-04-28T06:46:42.015Z,2.88
2023-04-28T06:49:12.568Z,5.28
2023-04-28T06:51:43.790Z,3.95
2023-04-28T06:54:25.049Z,4.38
2023-04-28T06:56:56.449Z,3.35
2023-04-28T06:59:26.347Z,3.05
2023-04-28T07:01:55.270Z,2.45
2023-04-28T07:04:24.741Z,3.35
2023-04-28T07:06:58.326Z,3.85
2023-04-28T07:09:27.996Z,3.10
2023-04-28T07:11:59.646Z,6.82
2023-04-28T07:14:28.307Z,2.83
2023-04-28T07:17:01.548Z,2.80
2023-04-28T07:19:30.888Z,3.78
2023-04-28T07:21:59.644Z,2.92
2023-04-28T07:24:28.436Z,2.90
2023-04-28T07:26:58.171Z,4.05
2023-04-28T07:29:28.843Z,3.13
2023-04-28T07:31:57.585Z,2.75
2023-04-28T07:34:26.281Z,4.13
2023-04-28T07:36:58.188Z,2.65
2023-04-28T07:39:28.958Z,3.35
2023-04-28T07:41:59.020Z,3.15
2023-04-28T07:44:28.610Z,3.33
2023-04-28T07:47:00.205Z,5.13
2023-04-28T07:49:32.787Z,1.95
2023-04-28T07:52:04.044Z,4.93
2023-04-28T07:54:36.382Z,2.92
2023-04-28T07:57:10.154Z,3.08
2023-04-28T07:59:43.314Z,3.22
2023-04-28T08:02:15.026Z,3.03
2023-04-28T08:04:44.036Z,2.33
2023-04-28T08:07:13.834Z,2.83
2023-04-28T08:09:47.409Z,4.20
2023-04-28T08:14:44.825Z,4.13
2023-04-28T08:17:13.264Z,3.22
2023-04-28T08:19:44.947Z,3.05
2023-04-28T08:22:14.112Z,4.25
2023-04-28T08:24:42.627Z,2.90
2023-04-28T08:27:14.316Z,3.25
2023-04-28T08:29:45.407Z,5.45
2023-04-28T08:32:16.942Z,2.85
2023-04-28T08:34:46.168Z,2.60
2023-04-28T08:37:14.504Z,4.07
2023-04-28T08:39:42.769Z,2.95
2023-04-28T08:42:11.941Z,3.28
2023-04-28T08:44:41.024Z,3.97
2023-04-28T08:47:13.909Z,5.22
2023-04-28T08:49:42.760Z,9.80
2023-04-28T08:52:17.821Z,4.22
2023-04-28T08:54:48.626Z,3.30
2023-04-28T08:57:20.132Z,7.27
2023-04-28T08:59:49.145Z,6.68
2023-04-28T09:02:18.149Z,3.42
2023-04-28T09:04:48.581Z,3.30
2023-04-28T09:07:17.738Z,4.30
2023-04-28T09:09:47.182Z,5.95
2023-04-28T09:12:15.689Z,4.55
2023-04-28T09:14:44.126Z,3.13
2023-04-28T09:17:13.322Z,5.05
2023-04-28T09:19:43.867Z,3.33
2023-04-28T09:22:26.415Z,4.13
2023-04-28T09:24:56.267Z,3.63
2023-04-28T09:27:28.880Z,4.78
2023-04-28T09:29:57.469Z,3.42
2023-04-28T09:32:29.533Z,4.13
2023-04-28T09:35:01.655Z,5.65
2023-04-28T09:37:37.718Z,6.13
2023-04-28T09:40:06.607Z,4.43
2023-04-28T09:42:46.664Z,4.63
2023-04-28T09:45:16.381Z,5.57
2023-04-28T09:47:46.647Z,7.82
2023-04-28T09:50:17.356Z,5.07
2023-04-28T09:52:57.101Z,4.43
2023-04-28T09:55:26.029Z,7.57
2023-04-28T09:57:58.886Z,4.50
2023-04-28T10:00:31.208Z,4.68
2023-04-28T10:03:20.528Z,15.15
2023-04-28T10:05:53.454Z,5.63
2023-04-28T10:08:22.623Z,4.18
2023-04-28T10:11:02.195Z,4.25
2023-04-28T10:13:32.882Z,6.25
2023-04-28T10:16:01.272Z,7.70
2023-04-28T10:18:32.489Z,5.60
2023-04-28T10:21:03.212Z,4.30
2023-04-28T10:23:51.448Z,4.70
2023-04-28T10:26:20.744Z,5.35
2023-04-28T10:28:49.498Z,4.70
2023-04-28T10:31:22.039Z,5.97
2023-04-28T10:33:52.772Z,6.40
2023-04-28T10:36:40.813Z,5.78
2023-04-28T10:39:12.383Z,5.13
2023-04-28T10:41:42.791Z,5.10
2023-04-28T10:44:29.040Z,6.30
2023-04-28T10:47:04.316Z,7.68
2023-04-28T10:49:52.668Z,6.53
2023-04-28T10:52:44.475Z,5.47
2023-04-28T10:55:28.700Z,8.95
2023-04-28T10:58:16.652Z,9.07
2023-04-28T11:00:48.532Z,7.30
2023-04-28T11:03:38.197Z,6.47
2023-04-28T11:06:21.934Z,7.50
2023-04-28T11:08:49.992Z,6.70
2023-04-28T11:11:19.365Z,5.95
2023-04-28T11:13:50.758Z,6.28
2023-04-28T11:16:22.964Z,7.55
2023-04-28T11:19:04.791Z,7.38
2023-04-28T11:21:35.946Z,8.70
2023-04-28T11:24:10.054Z,7.45
2023-04-28T11:26:41.348Z,8.13
2023-04-28T11:29:14.852Z,6.22
2023-04-28T11:31:50.936Z,15.23
2023-04-28T11:34:22.555Z,7.28
2023-04-28T11:36:55.032Z,6.68
2023-04-28T11:41:56.440Z,11.32
2023-04-28T11:44:26.756Z,7.15
2023-04-28T11:46:57.470Z,8.27
2023-04-28T11:49:28.289Z,9.70
2023-04-28T11:51:56.900Z,8.38
2023-04-28T11:54:26.461Z,10.80
2023-04-28T11:56:56.505Z,9.40
2023-04-28T11:59:27.404Z,9.48
2023-04-28T12:02:00.214Z,9.40
2023-04-28T12:04:39.217Z,6.93
2023-04-28T12:07:15.009Z,11.73
2023-04-28T12:09:45.171Z,10.35
2023-04-28T12:12:18.453Z,8.32
2023-04-28T12:14:56.358Z,8.07
2023-04-28T12:17:34.053Z,10.45
2023-04-28T12:20:07.921Z,12.70
2023-04-28T12:22:51.337Z,9.73
2023-04-28T12:25:21.084Z,8.25
2023-04-28T12:28:03.040Z,10.30
2023-04-28T12:30:34.887Z,11.48
2023-04-28T12:33:26.412Z,10.00
2023-04-28T12:35:55.982Z,9.38
2023-04-28T12:38:24.767Z,10.50
2023-04-28T12:40:58.595Z,8.02
2023-04-28T12:43:29.142Z,12.90
2023-04-28T12:45:58.244Z,8.10
2023-04-28T12:48:27.300Z,9.55
2023-04-28T12:50:55.870Z,8.55
2023-04-28T12:53:24.817Z,7.57
2023-04-28T12:55:55.893Z,7.18
2023-04-28T12:58:25.642Z,6.20
2023-04-28T13:00:56.790Z,5.95
2023-04-28T13:03:44.431Z,8.48
2023-04-28T13:06:15.501Z,6.80
2023-04-28T13:08:50.113Z,6.65
2023-04-28T13:11:22.933Z,7.97
2023-04-28T13:13:53.279Z,9.18
2023-04-28T13:16:25.064Z,5.35
2023-04-28T13:18:56.552Z,5.07
2023-04-28T13:21:26.812Z,5.63
2023-04-28T13:23:56.620Z,4.53
2023-04-28T13:26:25.726Z,4.75
2023-04-28T13:28:55.177Z,5.25
2023-04-28T13:31:23.781Z,5.10
2023-04-28T13:33:53.919Z,4.95
2023-04-28T13:36:22.598Z,4.15
2023-04-28T13:38:52.409Z,4.88
2023-04-28T13:41:21.313Z,4.75
2023-04-28T13:43:57.325Z,4.47
2023-04-28T13:46:25.971Z,4.22
2023-04-28T13:48:55.051Z,3.40
2023-04-28T13:51:24.177Z,3.85
2023-04-28T13:53:54.151Z,5.10
2023-04-28T13:56:25.670Z,3.83
2023-04-28T13:58:57.723Z,3.83
2023-04-28T14:01:29.211Z,3.58
2023-04-28T14:03:59.095Z,3.80
2023-04-28T14:06:28.834Z,3.25
2023-04-28T14:08:57.779Z,3.63
2023-04-28T14:11:29.586Z,3.50
2023-04-28T14:13:57.987Z,3.42
2023-04-28T14:16:30.498Z,4.50
2023-04-28T14:19:04.933Z,4.20
2023-04-28T14:21:46.474Z,5.05
2023-04-28T14:24:16.553Z,4.00
2023-04-28T14:26:45.197Z,3.95
2023-04-28T14:29:16.307Z,3.38
2023-04-28T14:31:48.338Z,2.97
2023-04-28T14:34:26.608Z,2.88
2023-04-28T14:36:57.969Z,2.65
2023-04-28T14:39:30.456Z,1.75
2023-04-28T14:41:59.513Z,1.13
2023-04-28T14:44:28.396Z,0.85
2023-04-28T14:47:00.512Z,0.73
2023-04-28T14:49:33.109Z,0.73
2023-04-28T14:52:02.418Z,0.80
2023-04-28T14:54:32.227Z,1.35
2023-04-28T14:57:16.530Z,1.35
2023-04-28T14:59:47.388Z,2.13
2023-04-28T15:02:19.847Z,1.23
2023-04-28T15:04:49.193Z,0.80
2023-04-28T15:07:18.102Z,0.77
2023-04-28T15:09:47.445Z,0.70
2023-04-28T15:12:16.351Z,0.93
2023-04-28T15:14:45.876Z,1.52
2023-04-28T15:17:14.516Z,0.98
2023-04-28T15:19:46.622Z,1.48
2023-04-28T15:22:15.103Z,1.40
2023-04-28T15:24:43.894Z,1.15
2023-04-28T15:27:12.269Z,2.42
2023-04-28T15:29:41.610Z,1.50
2023-04-28T15:32:10.451Z,1.50
2023-04-28T15:34:39.499Z,2.20
2023-04-28T15:37:29.287Z,2.55
2023-04-28T15:39:57.950Z,2.60
2023-04-28T15:42:28.607Z,3.75
2023-04-28T15:44:57.052Z,3.63
2023-04-28T15:47:25.251Z,3.33
2023-04-28T15:49:55.048Z,3.85
2023-04-28T15:52:24.255Z,3.10
2023-04-28T15:54:52.826Z,2.10
2023-04-28T15:57:21.360Z,4.50
2023-04-28T15:59:51.957Z,1.83
2023-04-28T16:02:22.337Z,3.55
2023-04-28T16:04:51.565Z,2.47
2023-04-28T16:07:20.813Z,1.92
2023-04-28T16:09:49.652Z,2.58
2023-04-28T16:12:21.335Z,1.85
2023-04-28T16:14:50.666Z,1.40
2023-04-28T16:17:22.892Z,1.20
2023-04-28T16:19:51.540Z,1.50
2023-04-28T16:22:21.132Z,1.05
2023-04-28T16:24:50.324Z,2.53
2023-04-28T16:27:19.000Z,1.10
2023-04-28T16:29:52.323Z,1.27
2023-04-28T16:32:21.494Z,1.77
2023-04-28T16:34:52.913Z,1.88
2023-04-28T16:37:24.242Z,1.48
2023-04-28T16:39:52.948Z,2.42
2023-04-28T16:42:24.273Z,1.67
2023-04-28T16:44:53.419Z,1.98
2023-04-28T16:47:26.271Z,2.35
2023-04-28T16:49:56.281Z,1.90
2023-04-28T16:52:24.791Z,2.03
2023-04-28T16:54:54.378Z,2.60
2023-04-28T16:57:23.466Z,1.90
2023-04-28T16:59:53.001Z,2.20
2023-04-28T17:02:24.603Z,2.47
2023-04-28T17:04:56.940Z,3.53
2023-04-28T17:07:25.958Z,2.63
2023-04-28T17:09:55.256Z,2.28
2023-04-28T17:12:24.305Z,1.83
2023-04-28T17:14:56.356Z,2.40
2023-04-28T17:17:25.870Z,2.70
2023-04-28T17:19:58.756Z,2.53
2023-04-28T17:22:32.900Z,2.53
2023-04-28T17:25:01.758Z,2.97
2023-04-28T17:27:34.135Z,3.22
2023-04-28T17:30:05.070Z,3.05
2023-04-28T17:32:49.427Z,3.38
2023-04-28T17:35:17.795Z,3.40
2023-04-28T17:37:46.533Z,3.10
2023-04-28T17:40:18.621Z,4.90
2023-04-28T17:42:49.715Z,2.72
2023-04-28T17:45:18.371Z,3.83
2023-04-28T17:47:49.112Z,2.58
2023-04-28T17:50:20.876Z,2.60
2023-04-28T17:52:49.847Z,2.25
2023-04-28T17:55:18.542Z,5.13
2023-04-28T17:57:48.881Z,2.45
2023-04-28T18:00:19.824Z,2.45
2023-04-28T18:03:06.696Z,3.60
2023-04-28T18:05:36.278Z,2.67
2023-04-28T18:08:09.340Z,2.47
2023-04-28T18:10:38.395Z,2.60
2023-04-28T18:13:09.908Z,2.83
2023-04-28T18:15:41.965Z,2.80
2023-04-28T18:18:12.011Z,3.45
2023-04-28T18:20:43.569Z,4.55
2023-04-28T18:23:12.901Z,1.88
2023-04-28T18:25:44.608Z,2.63
2023-04-28T18:28:12.981Z,2.53
2023-04-28T18:30:40.327Z,2.55
2023-04-28T18:33:28.154Z,2.67
2023-04-28T18:36:02.024Z,2.85
2023-04-28T18:38:35.142Z,2.88
2023-04-28T18:41:14.797Z,3.67
2023-04-28T18:43:44.605Z,3.42
2023-04-28T18:46:13.634Z,3.35
2023-04-28T18:48:48.711Z,3.45
2023-04-28T18:51:17.105Z,3.55
2023-04-28T18:53:47.075Z,4.18
2023-04-28T18:56:15.619Z,3.28
2023-04-28T18:58:47.351Z,3.47
2023-04-28T19:01:16.926Z,3.70
2023-04-28T19:03:53.593Z,3.67
2023-04-28T19:06:22.180Z,5.40
2023-04-28T19:08:50.975Z,3.53
2023-04-28T19:11:21.986Z,3.53
2023-04-28T19:13:51.026Z,4.38
2023-04-28T19:16:19.552Z,3.28
2023-04-28T19:18:48.953Z,6.28
2023-04-28T19:21:20.995Z,5.28
2023-04-28T19:23:55.059Z,3.95
2023-04-28T19:26:24.247Z,3.40
2023-04-28T19:28:55.839Z,3.70
2023-04-28T19:31:26.928Z,3.05
2023-04-28T19:33:58.483Z,3.25
2023-04-28T19:36:33.154Z,3.53
2023-04-28T19:39:05.710Z,2.63
2023-04-28T19:41:37.376Z,2.78
2023-04-28T19:44:08.186Z,3.17
2023-04-28T19:46:37.133Z,3.22
2023-04-28T19:49:05.886Z,3.83
2023-04-28T19:51:37.073Z,4.60
2023-04-28T19:54:08.954Z,4.07
2023-04-28T19:56:37.484Z,4.55
2023-04-28T19:59:05.962Z,3.17
2023-04-28T20:01:34.555Z,2.90
2023-04-28T20:04:05.927Z,3.28
2023-04-28T20:06:35.009Z,2.70
2023-04-28T20:09:05.572Z,3.20
2023-04-28T20:11:37.692Z,3.22
2023-04-28T20:14:06.453Z,3.88
2023-04-28T20:16:35.042Z,4.55
2023-04-28T20:19:04.389Z,4.50
2023-04-28T20:21:35.182Z,3.72
2023-04-28T20:24:06.696Z,3.80
2023-04-28T20:26:35.605Z,4.18
2023-04-28T20:29:05.666Z,3.67
2023-04-28T20:31:35.912Z,3.50
2023-04-28T20:34:04.873Z,3.92
2023-04-28T20:36:40.023Z,3.70
2023-04-28T20:39:11.153Z,5.72
2023-04-28T20:44:13.301Z,4.57
2023-04-28T20:46:42.414Z,5.78
2023-04-28T20:49:12.289Z,5.00
2023-04-28T20:51:45.147Z,4.65
2023-04-28T20:54:15.705Z,5.40
2023-04-28T20:56:45.254Z,5.63
2023-04-28T20:59:14.602Z,5.65
2023-04-28T21:01:44.663Z,7.20
2023-04-28T21:04:18.788Z,6.90
2023-04-28T21:06:48.911Z,6.65
2023-04-28T21:09:17.433Z,6.45
2023-04-28T21:11:46.764Z,5.82
2023-04-28T21:14:16.708Z,7.30
2023-04-28T21:16:45.146Z,6.43
2023-04-28T21:19:17.475Z,5.80
2023-04-28T21:21:46.077Z,7.75
2023-04-28T21:24:17.222Z,6.00
2023-04-28T21:26:47.719Z,6.88
2023-04-28T21:29:18.358Z,7.00
2023-04-28T21:31:47.282Z,5.22
2023-04-28T21:34:18.043Z,4.72
2023-04-28T21:36:47.645Z,4.63
2023-04-28T21:39:17.083Z,3.85
2023-04-28T21:41:45.506Z,3.85
2023-04-28T21:44:14.485Z,4.22
2023-04-28T21:46:42.845Z,4.28
2023-04-28T21:49:11.428Z,4.82
2023-04-28T21:51:42.213Z,4.68
2023-04-28T21:54:10.872Z,6.13
2023-04-28T21:56:39.644Z,5.25
2023-04-28T21:59:08.334Z,5.72
2023-04-28T22:01:39.967Z,7.03
2023-04-28T22:04:09.463Z,6.72
2023-04-28T22:06:38.721Z,6.68
2023-04-28T22:09:08.049Z,7.25
2023-04-28T22:11:36.404Z,6.45
2023-04-28T22:14:04.996Z,9.63
2023-04-28T22:16:33.880Z,9.82
2023-04-28T22:19:02.702Z,5.60
2023-04-28T22:21:34.741Z,6.60
2023-04-28T22:24:08.213Z,7.60
2023-04-28T22:26:39.623Z,7.80
2023-04-28T22:29:12.341Z,7.00
2023-04-28T22:31:40.892Z,7.22
2023-04-28T22:34:10.370Z,6.72
2023-04-28T22:36:41.698Z,8.10
2023-04-28T22:39:10.551Z,9.07
2023-04-28T22:41:40.301Z,8.35
2023-04-28T22:44:12.175Z,10.30
2023-04-28T22:46:40.560Z,12.70
2023-04-28T22:49:09.929Z,9.07
2023-04-28T22:51:42.474Z,11.95
2023-04-28T22:54:11.618Z,16.08
2023-04-28T22:56:42.727Z,10.57
2023-04-28T22:59:11.881Z,12.43
2023-04-28T23:01:41.950Z,14.27
2023-04-28T23:04:13.168Z,13.65
2023-04-28T23:06:42.606Z,13.80
2023-04-28T23:09:11.768Z,18.02
2023-04-28T23:11:41.053Z,13.02
2023-04-28T23:14:11.497Z,14.93
2023-04-28T23:16:41.099Z,17.95
2023-04-28T23:19:09.806Z,23.52
2023-04-28T23:21:38.656Z,17.80
2023-04-28T23:24:10.960Z,16.67
2023-04-28T23:26:39.722Z,15.45
2023-04-28T23:29:11.084Z,20.17
2023-04-28T23:31:40.086Z,19.50
2023-04-28T23:34:08.937Z,16.88
2023-04-28T23:36:41.107Z,17.05
2023-04-28T23:39:09.304Z,17.55
2023-04-28T23:41:41.377Z,14.70
2023-04-28T23:44:10.543Z,16.73
2023-04-28T23:46:39.403Z,16.83
2023-04-28T23:49:07.586Z,21.17
2023-04-28T23:51:36.417Z,17.83
2023-04-28T23:54:08.401Z,16.98
2023-04-28T23:56:39.291Z,23.58
2023-04-28T23:59:08.402Z,19.60
